sensor_id;sensor_type;location;lat;lon;timestamp;P1;durP1;ratioP1;P2;durP2;ratioP2
40433;SDS011;26146;51.114;5.654;2022-12-29T00:01:28;3.27;;;0.80;;
40433;SDS011;26146;51.114;5.654;2022-12-29T00:05:30;3.43;;;0.80;;
40433;SDS011;26146;51.114;5.654;2022-12-29T00:09:31;3.70;;;0.90;;
40433;SDS011;26146;51.114;5.654;2022-12-29T00:13:33;3.30;;;0.80;;
40433;SDS011;26146;51.114;5.654;2022-12-29T00:17:53;2.50;;;0.80;;
40433;SDS011;26146;51.114;5.654;2022-12-29T00:21:54;3.33;;;0.80;;
40433;SDS011;26146;51.114;5.654;2022-12-29T00:26:13;3.00;;;0.70;;
40433;SDS011;26146;51.114;5.654;2022-12-29T00:30:48;3.43;;;0.80;;
40433;SDS011;26146;51.114;5.654;2022-12-29T00:35:12;3.00;;;0.70;;
40433;SDS011;26146;51.114;5.654;2022-12-29T00:39:18;2.03;;;0.60;;
40433;SDS011;26146;51.114;5.654;2022-12-29T00:43:38;1.50;;;0.40;;
40433;SDS011;26146;51.114;5.654;2022-12-29T00:47:57;3.73;;;0.70;;
40433;SDS011;26146;51.114;5.654;2022-12-29T00:52:05;3.67;;;0.50;;
40433;SDS011;26146;51.114;5.654;2022-12-29T00:56:10;3.10;;;0.67;;
40433;SDS011;26146;51.114;5.654;2022-12-29T01:00:12;2.23;;;0.50;;
40433;SDS011;26146;51.114;5.654;2022-12-29T01:04:13;2.73;;;0.53;;
40433;SDS011;26146;51.114;5.654;2022-12-29T01:08:14;2.40;;;0.60;;
40433;SDS011;26146;51.114;5.654;2022-12-29T01:12:15;2.37;;;0.50;;
40433;SDS011;26146;51.114;5.654;2022-12-29T01:16:18;3.35;;;0.52;;
40433;SDS011;26146;51.114;5.654;2022-12-29T01:20:19;2.23;;;0.50;;
40433;SDS011;26146;51.114;5.654;2022-12-29T01:24:20;5.97;;;0.98;;
40433;SDS011;26146;51.114;5.654;2022-12-29T01:28:21;4.50;;;0.60;;
40433;SDS011;26146;51.114;5.654;2022-12-29T01:32:23;1.87;;;0.37;;
40433;SDS011;26146;51.114;5.654;2022-12-29T01:36:24;3.50;;;0.53;;
40433;SDS011;26146;51.114;5.654;2022-12-29T01:40:25;2.83;;;0.45;;
40433;SDS011;26146;51.114;5.654;2022-12-29T01:44:46;2.45;;;0.50;;
40433;SDS011;26146;51.114;5.654;2022-12-29T01:48:48;3.27;;;0.50;;
40433;SDS011;26146;51.114;5.654;2022-12-29T01:53:00;4.20;;;0.50;;
40433;SDS011;26146;51.114;5.654;2022-12-29T01:57:10;4.25;;;0.77;;
40433;SDS011;26146;51.114;5.654;2022-12-29T02:01:14;3.35;;;0.60;;
40433;SDS011;26146;51.114;5.654;2022-12-29T02:05:42;3.60;;;0.60;;
40433;SDS011;26146;51.114;5.654;2022-12-29T02:09:49;4.27;;;0.60;;
40433;SDS011;26146;51.114;5.654;2022-12-29T02:13:51;2.72;;;0.57;;
40433;SDS011;26146;51.114;5.654;2022-12-29T02:17:59;4.03;;;0.50;;
40433;SDS011;26146;51.114;5.654;2022-12-29T02:22:05;5.70;;;1.08;;
40433;SDS011;26146;51.114;5.654;2022-12-29T02:35:13;6.07;;;0.73;;
40433;SDS011;26146;51.114;5.654;2022-12-29T02:43:52;4.10;;;0.60;;
40433;SDS011;26146;51.114;5.654;2022-12-29T02:48:25;3.45;;;0.50;;
40433;SDS011;26146;51.114;5.654;2022-12-29T02:52:51;3.72;;;0.57;;
40433;SDS011;26146;51.114;5.654;2022-12-29T02:56:58;3.25;;;0.60;;
40433;SDS011;26146;51.114;5.654;2022-12-29T03:13:43;2.13;;;0.40;;
40433;SDS011;26146;51.114;5.654;2022-12-29T03:18:15;2.63;;;0.40;;
40433;SDS011;26146;51.114;5.654;2022-12-29T03:22:25;2.60;;;0.43;;
40433;SDS011;26146;51.114;5.654;2022-12-29T03:26:32;2.37;;;0.40;;
40433;SDS011;26146;51.114;5.654;2022-12-29T03:30:34;2.70;;;0.50;;
40433;SDS011;26146;51.114;5.654;2022-12-29T03:34:36;3.00;;;0.50;;
40433;SDS011;26146;51.114;5.654;2022-12-29T03:38:41;2.23;;;0.50;;
40433;SDS011;26146;51.114;5.654;2022-12-29T03:42:47;2.20;;;0.40;;
40433;SDS011;26146;51.114;5.654;2022-12-29T03:46:48;3.43;;;0.57;;
40433;SDS011;26146;51.114;5.654;2022-12-29T03:50:50;1.87;;;0.40;;
40433;SDS011;26146;51.114;5.654;2022-12-29T03:54:51;2.50;;;0.33;;
40433;SDS011;26146;51.114;5.654;2022-12-29T03:58:52;2.80;;;0.50;;
40433;SDS011;26146;51.114;5.654;2022-12-29T04:02:56;2.33;;;0.30;;
40433;SDS011;26146;51.114;5.654;2022-12-29T04:06:57;3.63;;;0.60;;
40433;SDS011;26146;51.114;5.654;2022-12-29T04:10:58;3.60;;;0.40;;
40433;SDS011;26146;51.114;5.654;2022-12-29T04:14:59;3.97;;;0.50;;
40433;SDS011;26146;51.114;5.654;2022-12-29T04:19:00;2.90;;;0.40;;
40433;SDS011;26146;51.114;5.654;2022-12-29T04:23:03;3.10;;;0.40;;
40433;SDS011;26146;51.114;5.654;2022-12-29T04:27:05;2.97;;;0.47;;
40433;SDS011;26146;51.114;5.654;2022-12-29T04:31:06;3.50;;;0.50;;
40433;SDS011;26146;51.114;5.654;2022-12-29T04:35:07;4.28;;;0.47;;
40433;SDS011;26146;51.114;5.654;2022-12-29T04:39:08;4.03;;;0.43;;
40433;SDS011;26146;51.114;5.654;2022-12-29T04:43:09;4.63;;;0.50;;
40433;SDS011;26146;51.114;5.654;2022-12-29T04:47:10;2.17;;;0.30;;
40433;SDS011;26146;51.114;5.654;2022-12-29T04:51:11;3.40;;;0.33;;
40433;SDS011;26146;51.114;5.654;2022-12-29T04:55:13;4.67;;;0.40;;
40433;SDS011;26146;51.114;5.654;2022-12-29T04:59:14;5.80;;;0.50;;
40433;SDS011;26146;51.114;5.654;2022-12-29T05:03:15;5.33;;;0.40;;
40433;SDS011;26146;51.114;5.654;2022-12-29T05:07:16;3.43;;;0.30;;
40433;SDS011;26146;51.114;5.654;2022-12-29T05:11:17;3.27;;;0.37;;
40433;SDS011;26146;51.114;5.654;2022-12-29T05:15:18;3.03;;;0.37;;
40433;SDS011;26146;51.114;5.654;2022-12-29T05:19:19;3.40;;;0.30;;
40433;SDS011;26146;51.114;5.654;2022-12-29T05:23:20;3.37;;;0.40;;
40433;SDS011;26146;51.114;5.654;2022-12-29T05:27:21;5.57;;;0.40;;
40433;SDS011;26146;51.114;5.654;2022-12-29T05:31:22;3.53;;;0.50;;
40433;SDS011;26146;51.114;5.654;2022-12-29T05:35:23;3.90;;;0.40;;
40433;SDS011;26146;51.114;5.654;2022-12-29T05:39:24;5.40;;;0.30;;
40433;SDS011;26146;51.114;5.654;2022-12-29T05:43:25;3.37;;;0.40;;
40433;SDS011;26146;51.114;5.654;2022-12-29T05:47:26;6.23;;;0.50;;
40433;SDS011;26146;51.114;5.654;2022-12-29T05:51:27;6.00;;;0.53;;
40433;SDS011;26146;51.114;5.654;2022-12-29T05:55:28;3.50;;;0.40;;
40433;SDS011;26146;51.114;5.654;2022-12-29T05:59:29;3.37;;;0.40;;
40433;SDS011;26146;51.114;5.654;2022-12-29T06:03:32;6.03;;;0.60;;
40433;SDS011;26146;51.114;5.654;2022-12-29T06:07:33;4.57;;;0.60;;
40433;SDS011;26146;51.114;5.654;2022-12-29T06:11:34;4.90;;;0.40;;
40433;SDS011;26146;51.114;5.654;2022-12-29T06:15:35;6.00;;;0.60;;
40433;SDS011;26146;51.114;5.654;2022-12-29T06:19:37;3.80;;;0.30;;
40433;SDS011;26146;51.114;5.654;2022-12-29T06:23:38;4.73;;;0.50;;
40433;SDS011;26146;51.114;5.654;2022-12-29T06:27:39;6.23;;;0.70;;
40433;SDS011;26146;51.114;5.654;2022-12-29T06:31:42;6.57;;;0.60;;
40433;SDS011;26146;51.114;5.654;2022-12-29T06:35:45;7.20;;;0.67;;
40433;SDS011;26146;51.114;5.654;2022-12-29T06:39:46;4.93;;;0.60;;
40433;SDS011;26146;51.114;5.654;2022-12-29T06:43:47;6.67;;;0.83;;
40433;SDS011;26146;51.114;5.654;2022-12-29T06:47:48;5.73;;;0.70;;
40433;SDS011;26146;51.114;5.654;2022-12-29T06:51:49;7.23;;;0.60;;
40433;SDS011;26146;51.114;5.654;2022-12-29T06:55:50;4.47;;;0.63;;
40433;SDS011;26146;51.114;5.654;2022-12-29T06:59:51;6.27;;;0.57;;
40433;SDS011;26146;51.114;5.654;2022-12-29T07:03:52;7.40;;;0.83;;
40433;SDS011;26146;51.114;5.654;2022-12-29T07:07:53;7.20;;;0.80;;
40433;SDS011;26146;51.114;5.654;2022-12-29T07:11:55;7.60;;;0.80;;
40433;SDS011;26146;51.114;5.654;2022-12-29T07:15:56;7.63;;;0.70;;
40433;SDS011;26146;51.114;5.654;2022-12-29T07:19:57;6.10;;;0.50;;
40433;SDS011;26146;51.114;5.654;2022-12-29T07:23:58;7.23;;;0.80;;
40433;SDS011;26146;51.114;5.654;2022-12-29T07:27:59;8.50;;;0.80;;
40433;SDS011;26146;51.114;5.654;2022-12-29T07:32:00;7.27;;;0.93;;
40433;SDS011;26146;51.114;5.654;2022-12-29T07:36:01;8.67;;;0.80;;
40433;SDS011;26146;51.114;5.654;2022-12-29T07:40:02;9.07;;;0.70;;
40433;SDS011;26146;51.114;5.654;2022-12-29T07:44:08;7.17;;;0.83;;
40433;SDS011;26146;51.114;5.654;2022-12-29T07:48:10;8.07;;;0.80;;
40433;SDS011;26146;51.114;5.654;2022-12-29T07:52:11;6.97;;;0.70;;
40433;SDS011;26146;51.114;5.654;2022-12-29T07:56:12;7.33;;;0.80;;
40433;SDS011;26146;51.114;5.654;2022-12-29T08:00:13;9.60;;;0.83;;
40433;SDS011;26146;51.114;5.654;2022-12-29T08:04:15;8.13;;;0.80;;
40433;SDS011;26146;51.114;5.654;2022-12-29T08:08:16;8.67;;;0.87;;
40433;SDS011;26146;51.114;5.654;2022-12-29T08:12:19;9.50;;;0.80;;
40433;SDS011;26146;51.114;5.654;2022-12-29T08:16:20;8.63;;;0.77;;
40433;SDS011;26146;51.114;5.654;2022-12-29T08:20:21;7.37;;;0.90;;
40433;SDS011;26146;51.114;5.654;2022-12-29T08:24:22;8.20;;;0.90;;
40433;SDS011;26146;51.114;5.654;2022-12-29T08:28:23;7.10;;;0.90;;
40433;SDS011;26146;51.114;5.654;2022-12-29T08:32:24;9.23;;;1.00;;
40433;SDS011;26146;51.114;5.654;2022-12-29T08:36:26;13.43;;;1.73;;
40433;SDS011;26146;51.114;5.654;2022-12-29T08:40:30;11.50;;;1.83;;
40433;SDS011;26146;51.114;5.654;2022-12-29T08:44:31;9.80;;;1.03;;
40433;SDS011;26146;51.114;5.654;2022-12-29T08:48:35;10.50;;;1.27;;
40433;SDS011;26146;51.114;5.654;2022-12-29T08:52:35;9.37;;;1.33;;
40433;SDS011;26146;51.114;5.654;2022-12-29T08:56:36;7.30;;;0.83;;
40433;SDS011;26146;51.114;5.654;2022-12-29T09:00:40;10.97;;;0.90;;
40433;SDS011;26146;51.114;5.654;2022-12-29T09:04:42;6.60;;;0.70;;
40433;SDS011;26146;51.114;5.654;2022-12-29T09:08:43;8.90;;;0.80;;
40433;SDS011;26146;51.114;5.654;2022-12-29T09:12:44;15.43;;;1.10;;
40433;SDS011;26146;51.114;5.654;2022-12-29T09:16:45;7.27;;;0.77;;
40433;SDS011;26146;51.114;5.654;2022-12-29T09:21:05;8.77;;;0.93;;
40433;SDS011;26146;51.114;5.654;2022-12-29T09:25:07;8.57;;;0.80;;
40433;SDS011;26146;51.114;5.654;2022-12-29T09:29:09;8.83;;;1.10;;
40433;SDS011;26146;51.114;5.654;2022-12-29T09:33:10;7.20;;;0.70;;
40433;SDS011;26146;51.114;5.654;2022-12-29T09:37:11;8.50;;;1.40;;
40433;SDS011;26146;51.114;5.654;2022-12-29T09:41:20;8.50;;;0.70;;
40433;SDS011;26146;51.114;5.654;2022-12-29T09:55:03;11.30;;;1.40;;
40433;SDS011;26146;51.114;5.654;2022-12-29T09:58:55;10.70;;;0.90;;
40433;SDS011;26146;51.114;5.654;2022-12-29T10:03:14;9.40;;;1.00;;
40433;SDS011;26146;51.114;5.654;2022-12-29T10:07:29;11.03;;;1.20;;
40433;SDS011;26146;51.114;5.654;2022-12-29T10:20:12;9.57;;;1.00;;
40433;SDS011;26146;51.114;5.654;2022-12-29T10:24:34;11.18;;;1.40;;
40433;SDS011;26146;51.114;5.654;2022-12-29T10:32:55;12.07;;;1.10;;
40433;SDS011;26146;51.114;5.654;2022-12-29T10:37:05;11.73;;;1.10;;
40433;SDS011;26146;51.114;5.654;2022-12-29T10:42:13;11.10;;;1.30;;
40433;SDS011;26146;51.114;5.654;2022-12-29T10:46:02;7.43;;;0.90;;
40433;SDS011;26146;51.114;5.654;2022-12-29T10:50:11;9.93;;;1.00;;
40433;SDS011;26146;51.114;5.654;2022-12-29T10:58:28;10.70;;;1.43;;
40433;SDS011;26146;51.114;5.654;2022-12-29T11:02:40;8.40;;;0.73;;
40433;SDS011;26146;51.114;5.654;2022-12-29T11:07:11;10.27;;;1.20;;
40433;SDS011;26146;51.114;5.654;2022-12-29T11:11:21;9.70;;;1.10;;
40433;SDS011;26146;51.114;5.654;2022-12-29T11:15:26;10.07;;;1.00;;
40433;SDS011;26146;51.114;5.654;2022-12-29T11:19:28;9.30;;;1.00;;
40433;SDS011;26146;51.114;5.654;2022-12-29T11:23:38;8.07;;;0.97;;
40433;SDS011;26146;51.114;5.654;2022-12-29T11:27:40;6.67;;;0.90;;
40433;SDS011;26146;51.114;5.654;2022-12-29T11:36:20;12.80;;;1.47;;
40433;SDS011;26146;51.114;5.654;2022-12-29T11:40:23;10.20;;;1.02;;
40433;SDS011;26146;51.114;5.654;2022-12-29T11:44:28;6.10;;;0.90;;
40433;SDS011;26146;51.114;5.654;2022-12-29T11:48:40;10.10;;;1.00;;
40433;SDS011;26146;51.114;5.654;2022-12-29T11:52:42;11.65;;;1.55;;
40433;SDS011;26146;51.114;5.654;2022-12-29T11:56:43;10.07;;;1.07;;
40433;SDS011;26146;51.114;5.654;2022-12-29T12:00:44;9.27;;;0.90;;
40433;SDS011;26146;51.114;5.654;2022-12-29T12:04:47;10.97;;;1.27;;
40433;SDS011;26146;51.114;5.654;2022-12-29T12:08:54;10.27;;;1.13;;
40433;SDS011;26146;51.114;5.654;2022-12-29T12:21:56;10.43;;;1.10;;
40433;SDS011;26146;51.114;5.654;2022-12-29T12:30:23;10.83;;;1.20;;
40433;SDS011;26146;51.114;5.654;2022-12-29T12:34:36;9.30;;;1.37;;
40433;SDS011;26146;51.114;5.654;2022-12-29T12:43:39;10.27;;;1.20;;
40433;SDS011;26146;51.114;5.654;2022-12-29T13:09:34;9.13;;;1.17;;
40433;SDS011;26146;51.114;5.654;2022-12-29T13:31:15;8.33;;;1.00;;
40433;SDS011;26146;51.114;5.654;2022-12-29T13:39:55;8.30;;;0.87;;
40433;SDS011;26146;51.114;5.654;2022-12-29T13:44:00;7.23;;;0.93;;
40433;SDS011;26146;51.114;5.654;2022-12-29T13:48:13;9.03;;;1.50;;
40433;SDS011;26146;51.114;5.654;2022-12-29T13:57:45;9.00;;;1.10;;
40433;SDS011;26146;51.114;5.654;2022-12-29T14:01:39;9.37;;;0.90;;
40433;SDS011;26146;51.114;5.654;2022-12-29T14:05:46;7.93;;;0.80;;
40433;SDS011;26146;51.114;5.654;2022-12-29T14:14:38;8.68;;;0.90;;
40433;SDS011;26146;51.114;5.654;2022-12-29T14:18:43;9.00;;;1.00;;
40433;SDS011;26146;51.114;5.654;2022-12-29T14:23:01;10.70;;;1.30;;
40433;SDS011;26146;51.114;5.654;2022-12-29T14:35:38;11.10;;;1.10;;
40433;SDS011;26146;51.114;5.654;2022-12-29T14:39:44;11.85;;;1.15;;
40433;SDS011;26146;51.114;5.654;2022-12-29T14:48:28;8.97;;;1.03;;
40433;SDS011;26146;51.114;5.654;2022-12-29T14:52:45;7.73;;;1.00;;
40433;SDS011;26146;51.114;5.654;2022-12-29T14:57:02;7.00;;;1.00;;
40433;SDS011;26146;51.114;5.654;2022-12-29T15:01:12;9.95;;;1.20;;
40433;SDS011;26146;51.114;5.654;2022-12-29T15:05:32;10.90;;;2.10;;
40433;SDS011;26146;51.114;5.654;2022-12-29T15:09:47;14.00;;;2.67;;
40433;SDS011;26146;51.114;5.654;2022-12-29T15:13:55;14.30;;;3.90;;
40433;SDS011;26146;51.114;5.654;2022-12-29T15:17:56;13.17;;;4.33;;
40433;SDS011;26146;51.114;5.654;2022-12-29T15:21:59;15.60;;;5.53;;
40433;SDS011;26146;51.114;5.654;2022-12-29T15:26:02;10.10;;;1.17;;
40433;SDS011;26146;51.114;5.654;2022-12-29T15:30:12;11.60;;;1.40;;
40433;SDS011;26146;51.114;5.654;2022-12-29T15:34:13;8.67;;;1.27;;
40433;SDS011;26146;51.114;5.654;2022-12-29T15:38:16;9.30;;;1.27;;
40433;SDS011;26146;51.114;5.654;2022-12-29T15:46:54;12.53;;;1.50;;
40433;SDS011;26146;51.114;5.654;2022-12-29T15:50:55;11.67;;;2.07;;
40433;SDS011;26146;51.114;5.654;2022-12-29T15:54:56;12.33;;;1.33;;
40433;SDS011;26146;51.114;5.654;2022-12-29T15:59:00;12.37;;;1.40;;
40433;SDS011;26146;51.114;5.654;2022-12-29T16:03:02;10.17;;;1.13;;
40433;SDS011;26146;51.114;5.654;2022-12-29T16:07:06;8.97;;;1.30;;
40433;SDS011;26146;51.114;5.654;2022-12-29T16:11:44;7.50;;;1.00;;
40433;SDS011;26146;51.114;5.654;2022-12-29T16:15:48;4.75;;;0.50;;
40433;SDS011;26146;51.114;5.654;2022-12-29T16:19:53;5.83;;;0.50;;
40433;SDS011;26146;51.114;5.654;2022-12-29T16:23:58;4.67;;;0.30;;
40433;SDS011;26146;51.114;5.654;2022-12-29T16:32:27;5.07;;;0.77;;
40433;SDS011;26146;51.114;5.654;2022-12-29T16:41:06;5.07;;;0.60;;
40433;SDS011;26146;51.114;5.654;2022-12-29T16:49:33;5.63;;;0.80;;
40433;SDS011;26146;51.114;5.654;2022-12-29T16:53:36;7.27;;;1.10;;
40433;SDS011;26146;51.114;5.654;2022-12-29T16:57:42;5.90;;;1.10;;
40433;SDS011;26146;51.114;5.654;2022-12-29T17:02:25;6.00;;;0.90;;
40433;SDS011;26146;51.114;5.654;2022-12-29T17:06:29;7.63;;;0.90;;
40433;SDS011;26146;51.114;5.654;2022-12-29T17:10:32;6.03;;;0.90;;
40433;SDS011;26146;51.114;5.654;2022-12-29T17:18:58;9.63;;;1.20;;
40433;SDS011;26146;51.114;5.654;2022-12-29T17:22:59;10.57;;;1.40;;
40433;SDS011;26146;51.114;5.654;2022-12-29T17:27:00;9.90;;;1.50;;
40433;SDS011;26146;51.114;5.654;2022-12-29T17:31:02;8.97;;;1.03;;
40433;SDS011;26146;51.114;5.654;2022-12-29T17:35:12;7.63;;;1.10;;
40433;SDS011;26146;51.114;5.654;2022-12-29T17:39:15;10.90;;;2.30;;
40433;SDS011;26146;51.114;5.654;2022-12-29T17:43:16;16.07;;;2.93;;
40433;SDS011;26146;51.114;5.654;2022-12-29T17:47:17;11.77;;;1.80;;
40433;SDS011;26146;51.114;5.654;2022-12-29T17:51:19;14.30;;;2.43;;
40433;SDS011;26146;51.114;5.654;2022-12-29T17:55:21;15.53;;;2.13;;
40433;SDS011;26146;51.114;5.654;2022-12-29T17:59:23;14.73;;;1.63;;
40433;SDS011;26146;51.114;5.654;2022-12-29T18:03:26;11.53;;;1.80;;
40433;SDS011;26146;51.114;5.654;2022-12-29T18:07:35;10.70;;;1.60;;
40433;SDS011;26146;51.114;5.654;2022-12-29T18:11:39;15.13;;;2.03;;
40433;SDS011;26146;51.114;5.654;2022-12-29T18:15:41;16.93;;;3.73;;
40433;SDS011;26146;51.114;5.654;2022-12-29T18:19:42;22.03;;;4.20;;
40433;SDS011;26146;51.114;5.654;2022-12-29T18:23:44;25.37;;;7.20;;
40433;SDS011;26146;51.114;5.654;2022-12-29T18:27:45;38.07;;;13.77;;
40433;SDS011;26146;51.114;5.654;2022-12-29T18:31:48;16.87;;;5.63;;
40433;SDS011;26146;51.114;5.654;2022-12-29T18:35:56;13.13;;;3.27;;
40433;SDS011;26146;51.114;5.654;2022-12-29T18:39:59;15.73;;;3.70;;
40433;SDS011;26146;51.114;5.654;2022-12-29T18:44:00;10.87;;;3.17;;
40433;SDS011;26146;51.114;5.654;2022-12-29T18:48:01;12.70;;;2.73;;
40433;SDS011;26146;51.114;5.654;2022-12-29T18:52:02;12.00;;;2.40;;
40433;SDS011;26146;51.114;5.654;2022-12-29T18:56:03;11.10;;;2.10;;
40433;SDS011;26146;51.114;5.654;2022-12-29T19:00:07;10.07;;;1.80;;
40433;SDS011;26146;51.114;5.654;2022-12-29T19:04:11;10.53;;;2.37;;
40433;SDS011;26146;51.114;5.654;2022-12-29T19:08:15;12.17;;;2.40;;
40433;SDS011;26146;51.114;5.654;2022-12-29T19:12:16;13.60;;;2.70;;
40433;SDS011;26146;51.114;5.654;2022-12-29T19:16:21;12.93;;;2.10;;
40433;SDS011;26146;51.114;5.654;2022-12-29T19:20:31;10.97;;;1.77;;
40433;SDS011;26146;51.114;5.654;2022-12-29T19:24:37;12.77;;;1.43;;
40433;SDS011;26146;51.114;5.654;2022-12-29T19:28:40;12.47;;;1.40;;
40433;SDS011;26146;51.114;5.654;2022-12-29T19:32:50;12.20;;;2.17;;
40433;SDS011;26146;51.114;5.654;2022-12-29T19:36:52;27.40;;;9.90;;
40433;SDS011;26146;51.114;5.654;2022-12-29T19:40:53;12.53;;;2.30;;
40433;SDS011;26146;51.114;5.654;2022-12-29T19:44:54;10.73;;;1.57;;
40433;SDS011;26146;51.114;5.654;2022-12-29T19:49:10;14.10;;;2.60;;
40433;SDS011;26146;51.114;5.654;2022-12-29T19:53:12;13.60;;;2.60;;
40433;SDS011;26146;51.114;5.654;2022-12-29T19:57:13;14.27;;;2.33;;
40433;SDS011;26146;51.114;5.654;2022-12-29T20:01:15;10.63;;;2.03;;
40433;SDS011;26146;51.114;5.654;2022-12-29T20:05:18;20.17;;;4.00;;
40433;SDS011;26146;51.114;5.654;2022-12-29T20:09:20;14.77;;;2.47;;
40433;SDS011;26146;51.114;5.654;2022-12-29T20:13:21;15.27;;;1.97;;
40433;SDS011;26146;51.114;5.654;2022-12-29T20:17:22;14.47;;;2.20;;
40433;SDS011;26146;51.114;5.654;2022-12-29T20:21:23;17.57;;;2.47;;
40433;SDS011;26146;51.114;5.654;2022-12-29T20:25:25;13.10;;;2.20;;
40433;SDS011;26146;51.114;5.654;2022-12-29T20:29:32;12.67;;;2.17;;
40433;SDS011;26146;51.114;5.654;2022-12-29T20:33:38;15.63;;;3.20;;
40433;SDS011;26146;51.114;5.654;2022-12-29T20:37:39;16.00;;;2.03;;
40433;SDS011;26146;51.114;5.654;2022-12-29T20:41:40;11.07;;;1.83;;
40433;SDS011;26146;51.114;5.654;2022-12-29T20:45:41;14.13;;;2.10;;
40433;SDS011;26146;51.114;5.654;2022-12-29T20:49:42;12.93;;;2.20;;
40433;SDS011;26146;51.114;5.654;2022-12-29T20:53:43;15.43;;;2.73;;
40433;SDS011;26146;51.114;5.654;2022-12-29T20:57:44;14.23;;;2.30;;
40433;SDS011;26146;51.114;5.654;2022-12-29T21:01:45;9.83;;;1.87;;
40433;SDS011;26146;51.114;5.654;2022-12-29T21:05:46;15.83;;;3.03;;
40433;SDS011;26146;51.114;5.654;2022-12-29T21:09:47;15.50;;;2.93;;
40433;SDS011;26146;51.114;5.654;2022-12-29T21:13:48;63.80;;;21.07;;
40433;SDS011;26146;51.114;5.654;2022-12-29T21:17:55;40.70;;;12.73;;
40433;SDS011;26146;51.114;5.654;2022-12-29T21:21:56;23.33;;;8.47;;
40433;SDS011;26146;51.114;5.654;2022-12-29T21:26:00;41.73;;;15.33;;
40433;SDS011;26146;51.114;5.654;2022-12-29T21:30:05;46.70;;;16.87;;
40433;SDS011;26146;51.114;5.654;2022-12-29T21:34:10;33.93;;;11.70;;
40433;SDS011;26146;51.114;5.654;2022-12-29T21:38:11;42.87;;;13.73;;
40433;SDS011;26146;51.114;5.654;2022-12-29T21:42:12;26.23;;;7.13;;
40433;SDS011;26146;51.114;5.654;2022-12-29T21:46:13;17.50;;;4.07;;
40433;SDS011;26146;51.114;5.654;2022-12-29T21:50:14;13.60;;;2.17;;
40433;SDS011;26146;51.114;5.654;2022-12-29T21:54:19;13.97;;;2.23;;
40433;SDS011;26146;51.114;5.654;2022-12-29T21:58:45;14.67;;;2.50;;
40433;SDS011;26146;51.114;5.654;2022-12-29T22:03:09;12.83;;;1.70;;
40433;SDS011;26146;51.114;5.654;2022-12-29T22:07:29;14.77;;;2.50;;
40433;SDS011;26146;51.114;5.654;2022-12-29T22:11:49;11.73;;;1.90;;
40433;SDS011;26146;51.114;5.654;2022-12-29T22:16:09;13.63;;;2.20;;
40433;SDS011;26146;51.114;5.654;2022-12-29T22:20:20;14.73;;;2.50;;
40433;SDS011;26146;51.114;5.654;2022-12-29T22:24:23;16.13;;;2.00;;
40433;SDS011;26146;51.114;5.654;2022-12-29T22:28:24;13.20;;;2.30;;
40433;SDS011;26146;51.114;5.654;2022-12-29T22:32:28;13.97;;;2.23;;
40433;SDS011;26146;51.114;5.654;2022-12-29T22:36:30;11.93;;;1.93;;
40433;SDS011;26146;51.114;5.654;2022-12-29T22:40:34;16.10;;;2.33;;
40433;SDS011;26146;51.114;5.654;2022-12-29T22:44:41;12.80;;;1.77;;
40433;SDS011;26146;51.114;5.654;2022-12-29T22:48:43;10.97;;;1.77;;
40433;SDS011;26146;51.114;5.654;2022-12-29T22:52:44;13.60;;;1.70;;
40433;SDS011;26146;51.114;5.654;2022-12-29T22:56:45;11.90;;;1.60;;
40433;SDS011;26146;51.114;5.654;2022-12-29T23:00:48;12.80;;;1.60;;
40433;SDS011;26146;51.114;5.654;2022-12-29T23:04:51;16.03;;;2.00;;
40433;SDS011;26146;51.114;5.654;2022-12-29T23:08:52;11.17;;;1.70;;
40433;SDS011;26146;51.114;5.654;2022-12-29T23:12:55;13.97;;;1.80;;
40433;SDS011;26146;51.114;5.654;2022-12-29T23:16:58;12.67;;;1.60;;
40433;SDS011;26146;51.114;5.654;2022-12-29T23:20:59;13.53;;;1.77;;
40433;SDS011;26146;51.114;5.654;2022-12-29T23:25:00;12.27;;;1.40;;
40433;SDS011;26146;51.114;5.654;2022-12-29T23:29:02;12.87;;;1.60;;
40433;SDS011;26146;51.114;5.654;2022-12-29T23:33:04;14.17;;;1.67;;
40433;SDS011;26146;51.114;5.654;2022-12-29T23:37:05;12.70;;;1.77;;
40433;SDS011;26146;51.114;5.654;2022-12-29T23:41:07;12.13;;;1.60;;
40433;SDS011;26146;51.114;5.654;2022-12-29T23:45:08;11.33;;;1.47;;
40433;SDS011;26146;51.114;5.654;2022-12-29T23:49:10;15.50;;;1.57;;
40433;SDS011;26146;51.114;5.654;2022-12-29T23:53:11;12.73;;;2.13;;
40433;SDS011;26146;51.114;5.654;2022-12-29T23:57:12;12.47;;;1.70;;
